Terminal Aerodrome Forecast
Issued by NWS Buffalo, NY

Home | Current Version | Previous Version | Text Only | Print | Product List | Glossary On
Versions: 1 2 3 4 5 6 7 8 9 10 11 12 13 14 15 16 17 18 19 20 21 22 23 24 25 26 27
874
FTUS41 KBUF 280903 AAA
TAFBUF
TAF AMD
KBUF 280903Z 2809/0106 16005KT P6SM SCT050 BKN090
     FM281800 18011KT P6SM OVC050
     FM010400 20014KT 6SM -SHRA OVC020=

USA.gov is the U.S. government's official web portal to all federal, state and local government web resources and services.